createdAt,value
2024-04-19T00:01:05.931Z,8
2024-04-19T00:02:15.084Z,8
2024-04-19T00:03:24.255Z,8
2024-04-19T00:04:33.437Z,8
2024-04-19T00:05:42.612Z,7.9
2024-04-19T00:06:51.787Z,7.9
2024-04-19T00:07:59.981Z,7.9
2024-04-19T00:09:09.197Z,7.9
2024-04-19T00:10:18.300Z,7.9
2024-04-19T00:11:27.479Z,7.8
2024-04-19T00:12:36.654Z,7.9
2024-04-19T00:13:45.822Z,7.9
2024-04-19T00:14:54.984Z,7.8
2024-04-19T00:16:04.201Z,7.8
2024-04-19T00:17:13.389Z,7.8
2024-04-19T00:18:22.554Z,7.8
2024-04-19T00:19:31.751Z,7.8
2024-04-19T00:20:40.911Z,7.8
2024-04-19T00:21:50.097Z,7.8
2024-04-19T00:22:59.259Z,7.7
2024-04-19T00:24:08.541Z,7.9
2024-04-19T00:25:17.736Z,7.9
2024-04-19T00:26:26.891Z,7.8
2024-04-19T00:27:36.077Z,7.8
2024-04-19T00:28:45.245Z,7.7
2024-04-19T00:29:54.412Z,7.7
2024-04-19T00:31:03.587Z,7.6
2024-04-19T00:32:12.782Z,7.6
2024-04-19T00:33:21.953Z,7.6
2024-04-19T00:34:31.139Z,7.5
2024-04-19T00:35:40.275Z,7.5
2024-04-19T00:36:49.474Z,7.5
2024-04-19T00:37:58.632Z,7.4
2024-04-19T00:39:06.799Z,7.4
2024-04-19T00:40:15.988Z,7.4
2024-04-19T00:41:25.157Z,7.4
2024-04-19T00:42:34.336Z,7.3
2024-04-19T00:43:43.505Z,7.3
2024-04-19T00:44:52.690Z,7.3
2024-04-19T00:46:01.841Z,7.2
2024-04-19T00:47:11.022Z,7.1
2024-04-19T00:48:20.200Z,7.1
2024-04-19T00:49:29.407Z,7
2024-04-19T00:50:38.543Z,6.9
2024-04-19T00:51:47.734Z,6.9
2024-04-19T00:52:56.901Z,6.9
2024-04-19T00:54:05.075Z,6.8
2024-04-19T00:55:14.252Z,6.8
2024-04-19T00:56:23.417Z,6.8
2024-04-19T00:57:32.589Z,6.7
2024-04-19T00:58:41.751Z,6.8
2024-04-19T00:59:50.939Z,6.6
2024-04-19T01:01:00.165Z,6.6
2024-04-19T01:02:09.290Z,6.7
2024-04-19T01:03:18.465Z,6.7
2024-04-19T01:04:27.729Z,6.7
2024-04-19T01:05:36.794Z,6.7
2024-04-19T01:06:45.973Z,6.5
2024-04-19T01:07:55.162Z,6.6
2024-04-19T01:09:03.364Z,6.6
2024-04-19T01:10:12.515Z,6.5
2024-04-19T01:11:21.703Z,6.5
2024-04-19T01:12:30.857Z,6.4
2024-04-19T01:13:40.034Z,6.5
2024-04-19T01:14:49.244Z,6.4
2024-04-19T01:15:58.379Z,6.5
2024-04-19T01:17:07.555Z,6.5
2024-04-19T01:18:16.732Z,6.4
2024-04-19T01:19:25.923Z,6.4
2024-04-19T01:20:35.078Z,6.4
2024-04-19T01:21:44.246Z,6.5
2024-04-19T01:22:53.484Z,6.5
2024-04-19T01:24:01.618Z,6.4
2024-04-19T01:25:10.769Z,6.3
2024-04-19T01:26:19.936Z,6.4
2024-04-19T01:27:29.141Z,6.4
2024-04-19T01:28:38.279Z,6.5
2024-04-19T01:29:47.477Z,6.4
2024-04-19T01:30:56.647Z,6.5
2024-04-19T01:32:05.795Z,6.5
2024-04-19T01:33:14.984Z,6.4
2024-04-19T01:34:24.158Z,6.5
2024-04-19T01:35:33.323Z,6.6
2024-04-19T01:36:42.511Z,6.6
2024-04-19T01:37:51.662Z,6.5
2024-04-19T01:38:59.858Z,6.4
2024-04-19T01:40:09.029Z,6.4
2024-04-19T01:41:18.209Z,6.5
2024-04-19T01:42:27.373Z,6.5
2024-04-19T01:43:35.575Z,6.4
2024-04-19T01:44:44.730Z,6.6
2024-04-19T01:45:53.902Z,6.5
2024-04-19T01:47:03.090Z,6.5
2024-04-19T01:48:12.251Z,6.4
2024-04-19T01:49:21.436Z,6.5
2024-04-19T01:50:30.618Z,6.4
2024-04-19T01:51:39.762Z,6.4
2024-04-19T01:52:48.942Z,6.4
2024-04-19T01:53:58.139Z,6.5
2024-04-19T01:55:07.311Z,6.4
2024-04-19T01:56:16.464Z,6.4
2024-04-19T01:57:25.640Z,6.3
2024-04-19T01:58:34.816Z,6.4
2024-04-19T01:59:43.001Z,6.4
2024-04-19T02:00:52.160Z,6.3
2024-04-19T02:02:01.366Z,6.5
2024-04-19T02:03:10.506Z,6.4
2024-04-19T02:04:19.677Z,6.4
2024-04-19T02:05:28.867Z,6.4
2024-04-19T02:06:38.106Z,6.4
2024-04-19T02:07:47.270Z,6.4
2024-04-19T02:08:56.373Z,6.4
2024-04-19T02:10:05.553Z,6.4
2024-04-19T02:11:14.708Z,6.5
2024-04-19T02:12:23.890Z,6.3
2024-04-19T02:13:33.094Z,6.5
2024-04-19T02:14:41.252Z,6.4
2024-04-19T02:15:50.432Z,6.4
2024-04-19T02:16:59.631Z,6.3
2024-04-19T02:18:08.763Z,6.4
2024-04-19T02:19:17.951Z,6.4
2024-04-19T02:20:27.161Z,6.3
2024-04-19T02:21:36.293Z,6.3
2024-04-19T02:22:45.497Z,6.3
2024-04-19T02:23:54.657Z,6.4
2024-04-19T02:26:13.000Z,6.3
2024-04-19T02:27:22.213Z,6.4
2024-04-19T02:28:31.325Z,6.4
2024-04-19T02:29:39.515Z,6.4
2024-04-19T02:30:48.721Z,6.4
2024-04-19T02:31:57.863Z,6.3
2024-04-19T02:33:07.035Z,6.3
2024-04-19T02:34:16.242Z,6.3
2024-04-19T02:35:25.457Z,6.4
2024-04-19T02:36:34.545Z,6.4
2024-04-19T02:37:43.736Z,6.3
2024-04-19T02:38:53.074Z,6.3
2024-04-19T02:40:02.119Z,6.3
2024-04-19T02:41:11.272Z,6.3
2024-04-19T02:42:20.414Z,6.3
2024-04-19T02:43:29.634Z,6.3
2024-04-19T02:44:37.784Z,6.4
2024-04-19T02:45:46.951Z,6.4
2024-04-19T02:46:56.140Z,6.4
2024-04-19T02:48:05.328Z,6.4
2024-04-19T02:49:14.460Z,6.5
2024-04-19T02:50:23.745Z,6.5
2024-04-19T02:51:32.827Z,6.4
2024-04-19T02:52:42.023Z,6.3
2024-04-19T02:53:51.157Z,6.4
2024-04-19T02:55:00.367Z,6.5
2024-04-19T02:56:09.589Z,6.3
2024-04-19T02:57:18.702Z,6.4
2024-04-19T02:58:27.868Z,6.4
2024-04-19T02:59:36.047Z,6.4
2024-04-19T03:00:45.226Z,6.4
2024-04-19T03:01:54.508Z,6.4
2024-04-19T03:03:03.572Z,6.4
2024-04-19T03:04:12.758Z,6.4
2024-04-19T03:05:21.913Z,6.5
2024-04-19T03:06:31.082Z,6.4
2024-04-19T03:07:40.254Z,6.4
2024-04-19T03:08:49.453Z,6.5
2024-04-19T03:09:58.656Z,6.5
2024-04-19T03:11:07.908Z,6.4
2024-04-19T03:12:16.982Z,6.4
2024-04-19T03:13:26.184Z,6.4
2024-04-19T03:14:34.315Z,6.4
2024-04-19T03:15:43.471Z,6.5
2024-04-19T03:16:52.661Z,6.5
2024-04-19T03:18:01.837Z,6.5
2024-04-19T03:20:20.192Z,6.4
2024-04-19T03:21:29.337Z,6.5
2024-04-19T03:22:38.566Z,6.5
2024-04-19T03:23:47.684Z,6.6
2024-04-19T03:24:56.911Z,6.6
2024-04-19T03:26:06.072Z,6.5
2024-04-19T03:27:15.199Z,6.6
2024-04-19T03:28:24.369Z,6.5
2024-04-19T03:29:32.591Z,6.5
2024-04-19T03:30:41.733Z,6.5
2024-04-19T03:31:50.905Z,6.5
2024-04-19T03:33:00.101Z,6.5
2024-04-19T03:34:09.290Z,6.6
2024-04-19T03:35:18.445Z,6.6
2024-04-19T03:36:27.584Z,6.5
2024-04-19T03:37:36.775Z,6.5
2024-04-19T03:38:45.986Z,6.5
2024-04-19T03:39:55.121Z,6.5
2024-04-19T03:41:04.294Z,6.4
2024-04-19T03:42:13.457Z,6.5
2024-04-19T03:43:22.637Z,6.4
2024-04-19T03:44:30.824Z,6.5
2024-04-19T03:45:40.000Z,6.4
2024-04-19T03:46:49.228Z,6.5
2024-04-19T03:47:58.337Z,6.5
2024-04-19T03:49:07.558Z,6.4
2024-04-19T03:50:16.688Z,6.5
2024-04-19T03:51:25.857Z,6.6
2024-04-19T03:52:35.036Z,6.5
2024-04-19T03:53:44.195Z,6.6
2024-04-19T03:54:53.450Z,6.6
2024-04-19T03:56:02.734Z,6.5
2024-04-19T03:57:11.720Z,6.5
2024-04-19T03:58:20.897Z,6.6
2024-04-19T03:59:29.125Z,6.6
2024-04-19T04:00:38.278Z,6.6
2024-04-19T04:01:47.426Z,6.6
2024-04-19T04:02:56.602Z,6.6
2024-04-19T04:04:05.795Z,6.7
2024-04-19T04:05:14.961Z,6.7
2024-04-19T04:06:24.123Z,6.6
2024-04-19T04:07:33.308Z,6.6
2024-04-19T04:08:42.483Z,6.6
2024-04-19T04:09:51.685Z,6.7
2024-04-19T04:11:00.826Z,6.6
2024-04-19T04:12:10.013Z,6.6
2024-04-19T04:13:19.170Z,6.6
2024-04-19T04:14:27.351Z,6.6
2024-04-19T04:15:36.565Z,6.6
2024-04-19T04:16:45.686Z,6.6
2024-04-19T04:17:54.867Z,6.6
2024-04-19T04:19:04.074Z,6.6
2024-04-19T04:20:13.248Z,6.7
2024-04-19T04:21:22.404Z,6.6
2024-04-19T04:22:31.578Z,6.7
2024-04-19T04:23:40.761Z,6.6
2024-04-19T04:24:50.010Z,6.7
2024-04-19T04:25:59.076Z,6.8
2024-04-19T04:27:08.279Z,6.8
2024-04-19T04:28:17.422Z,6.8
2024-04-19T04:29:25.611Z,6.7
2024-04-19T04:30:34.791Z,6.8
2024-04-19T04:31:43.955Z,6.8
2024-04-19T04:32:53.120Z,6.8
2024-04-19T04:34:02.286Z,6.8
2024-04-19T04:35:11.484Z,6.7
2024-04-19T04:36:20.726Z,6.8
2024-04-19T04:37:29.815Z,6.8
2024-04-19T04:38:38.978Z,6.8
2024-04-19T04:39:48.182Z,6.7
2024-04-19T04:40:57.450Z,6.8
2024-04-19T04:42:06.513Z,6.8
2024-04-19T04:43:15.687Z,6.8
2024-04-19T04:44:23.868Z,6.7
2024-04-19T04:45:33.079Z,6.7
2024-04-19T04:46:42.256Z,6.9
2024-04-19T04:47:51.399Z,6.9
2024-04-19T04:49:00.580Z,6.9
2024-04-19T04:50:09.758Z,6.7
2024-04-19T04:51:18.909Z,6.8
2024-04-19T04:52:28.126Z,6.8
2024-04-19T04:53:37.275Z,6.9
2024-04-19T04:54:46.433Z,6.7
2024-04-19T04:55:55.643Z,6.7
2024-04-19T04:57:04.775Z,6.8
2024-04-19T04:58:13.960Z,6.8
2024-04-19T04:59:22.132Z,6.8
2024-04-19T05:00:31.325Z,6.9
2024-04-19T05:01:40.514Z,6.9
2024-04-19T05:02:49.656Z,6.9
2024-04-19T05:03:58.870Z,6.9
2024-04-19T05:05:08.029Z,6.8
2024-04-19T05:06:17.179Z,6.9
2024-04-19T05:07:26.372Z,6.8
2024-04-19T05:09:44.690Z,6.9
2024-04-19T05:10:53.869Z,7
2024-04-19T05:12:03.073Z,7
2024-04-19T05:13:12.202Z,6.9
2024-04-19T05:14:20.439Z,7
2024-04-19T05:15:29.602Z,6.9
2024-04-19T05:16:38.777Z,7
2024-04-19T05:17:47.919Z,6.9
2024-04-19T05:18:57.124Z,6.9
2024-04-19T05:20:06.277Z,7
2024-04-19T05:21:15.481Z,7.1
2024-04-19T05:22:24.640Z,7.1
2024-04-19T05:23:33.809Z,7
2024-04-19T05:24:43.014Z,7.1
2024-04-19T05:25:52.119Z,7.2
2024-04-19T05:27:01.351Z,7.1
2024-04-19T05:28:10.504Z,7
2024-04-19T05:29:18.695Z,7
2024-04-19T05:30:27.878Z,7.1
2024-04-19T05:31:37.034Z,7.1
2024-04-19T05:33:55.352Z,7.1
2024-04-19T05:35:03.595Z,7.1
2024-04-19T05:36:12.745Z,7.2
2024-04-19T05:37:21.954Z,7.2
2024-04-19T05:38:31.066Z,7.2
2024-04-19T05:39:40.254Z,7.2
2024-04-19T05:40:49.456Z,7.1
2024-04-19T05:41:58.573Z,7.2
2024-04-19T05:43:07.777Z,7.2
2024-04-19T05:44:16.939Z,7.3
2024-04-19T05:45:26.243Z,7.3
2024-04-19T05:46:35.263Z,7.3
2024-04-19T05:47:44.479Z,7.3
2024-04-19T05:48:53.650Z,7.2
2024-04-19T05:50:01.816Z,7.3
2024-04-19T05:51:11.003Z,7.2
2024-04-19T05:52:20.192Z,7.3
2024-04-19T05:53:29.327Z,7.4
2024-04-19T05:54:38.570Z,7.2
2024-04-19T05:55:47.749Z,7.3
2024-04-19T05:56:56.926Z,7.2
2024-04-19T05:58:06.022Z,7.3
2024-04-19T06:00:24.521Z,7.3
2024-04-19T06:01:33.609Z,7.3
2024-04-19T06:02:42.779Z,7.3
2024-04-19T06:05:01.064Z,7.3
2024-04-19T06:06:09.307Z,7.3
2024-04-19T06:07:18.401Z,7.2
2024-04-19T06:08:27.655Z,7.2
2024-04-19T06:10:45.944Z,7.3
2024-04-19T06:11:54.243Z,7.3
2024-04-19T06:13:02.473Z,7.4
2024-04-19T06:14:10.551Z,7.4
2024-04-19T06:16:28.998Z,7.5
2024-04-19T06:18:47.315Z,7.4
2024-04-19T06:19:56.433Z,7.5
2024-04-19T06:22:14.827Z,7.6
2024-04-19T06:23:23.991Z,7.5
2024-04-19T06:24:33.105Z,7.6
2024-04-19T06:25:42.398Z,7.6
2024-04-19T06:26:51.475Z,7.5
2024-04-19T06:27:59.676Z,7.6
2024-04-19T06:29:07.819Z,7.6
2024-04-19T06:31:26.272Z,7.5
2024-04-19T06:32:35.331Z,7.5
2024-04-19T06:33:44.502Z,7.6
2024-04-19T06:34:53.680Z,7.7
2024-04-19T06:36:02.896Z,7.6
2024-04-19T06:37:12.025Z,7.6
2024-04-19T06:38:21.260Z,7.6
2024-04-19T06:39:30.386Z,7.6
2024-04-19T06:40:39.823Z,7.6
2024-04-19T06:42:57.873Z,7.7
2024-04-19T06:44:06.082Z,7.7
2024-04-19T06:45:15.318Z,7.8
2024-04-19T06:46:24.455Z,7.7
2024-04-19T06:47:33.669Z,7.6
2024-04-19T06:48:42.866Z,7.7
2024-04-19T06:49:51.917Z,7.7
2024-04-19T06:51:01.104Z,7.8
2024-04-19T06:52:10.290Z,7.7
2024-04-19T06:53:19.449Z,7.7
2024-04-19T06:54:28.601Z,7.7
2024-04-19T06:55:36.856Z,7.7
2024-04-19T06:56:45.012Z,7.8
2024-04-19T06:57:54.211Z,7.7
2024-04-19T06:59:03.364Z,7.8
2024-04-19T07:00:12.525Z,7.8
2024-04-19T07:01:21.845Z,7.8
2024-04-19T07:02:30.849Z,7.8
2024-04-19T07:03:40.396Z,7.9
2024-04-19T07:04:49.206Z,7.9
2024-04-19T07:05:58.580Z,7.9
2024-04-19T07:07:06.932Z,8
2024-04-19T07:08:15.156Z,7.8
2024-04-19T07:09:24.197Z,7.9
2024-04-19T07:10:33.112Z,8
2024-04-19T07:11:42.647Z,8
2024-04-19T07:12:51.879Z,8.1
2024-04-19T07:14:00.985Z,8
2024-04-19T07:15:10.154Z,8
2024-04-19T07:16:18.974Z,8.1
2024-04-19T07:17:28.367Z,8.2
2024-04-19T07:18:37.447Z,8.1
2024-04-19T07:19:46.783Z,8
2024-04-19T07:20:55.742Z,8.2
2024-04-19T07:22:05.154Z,8.3
2024-04-19T07:23:13.365Z,8.3
2024-04-19T07:24:22.574Z,8.4
2024-04-19T07:25:31.695Z,8.4
2024-04-19T07:26:40.933Z,8.5
2024-04-19T07:27:50.040Z,8.4
2024-04-19T07:28:59.197Z,8.5
2024-04-19T07:30:08.404Z,8.5
2024-04-19T07:31:17.616Z,8.7
2024-04-19T07:32:26.726Z,8.8
2024-04-19T07:33:35.928Z,8.9
2024-04-19T07:34:45.243Z,9
2024-04-19T07:35:54.342Z,9.2
2024-04-19T07:37:03.114Z,9.1
2024-04-19T07:38:11.291Z,9.1
2024-04-19T07:39:20.687Z,9.2
2024-04-19T07:40:29.600Z,9.2
2024-04-19T07:42:48.345Z,9.1
2024-04-19T07:43:57.254Z,9.2
2024-04-19T07:45:06.353Z,9.4
2024-04-19T07:46:15.494Z,9.5
2024-04-19T07:47:24.666Z,9.6
2024-04-19T07:48:33.837Z,9.7
2024-04-19T07:49:43.012Z,9.8
2024-04-19T07:50:52.164Z,9.6
2024-04-19T07:52:01.623Z,9.5
2024-04-19T07:53:09.821Z,9.4
2024-04-19T07:54:18.966Z,9.5
2024-04-19T07:55:27.883Z,9.7
2024-04-19T07:56:37.393Z,9.8
2024-04-19T07:57:46.560Z,9.9
2024-04-19T07:58:55.740Z,10.1
2024-04-19T08:00:04.940Z,9.9
2024-04-19T08:01:14.095Z,9.7
2024-04-19T08:02:23.275Z,9.7
2024-04-19T08:03:32.415Z,9.8
2024-04-19T08:04:41.612Z,9.4
2024-04-19T08:05:50.811Z,9.4
2024-04-19T08:06:59.722Z,9.7
2024-04-19T08:08:08.177Z,9.8
2024-04-19T08:09:17.106Z,9.8
2024-04-19T08:10:26.565Z,10
2024-04-19T08:11:35.695Z,9.8
2024-04-19T08:12:44.757Z,9.8
2024-04-19T08:13:53.990Z,9.8
2024-04-19T08:15:03.144Z,9.9
2024-04-19T08:16:12.037Z,9.6
2024-04-19T08:17:21.307Z,9.6
2024-04-19T08:19:39.913Z,9.5
2024-04-19T08:20:49.107Z,9.6
2024-04-19T08:21:58.033Z,9.7
2024-04-19T08:23:06.569Z,9.7
2024-04-19T08:24:15.222Z,9.6
2024-04-19T08:25:24.417Z,9.6
2024-04-19T08:26:33.575Z,9.7
2024-04-19T08:27:42.950Z,9.8
2024-04-19T08:28:51.959Z,9.8
2024-04-19T08:30:01.100Z,9.7
2024-04-19T08:31:10.292Z,9.9
2024-04-19T08:32:19.548Z,10.1
2024-04-19T08:33:28.640Z,10.2
2024-04-19T08:34:37.786Z,10.3
2024-04-19T08:36:56.154Z,10
2024-04-19T08:38:04.310Z,10.1
2024-04-19T08:39:13.535Z,10.3
2024-04-19T08:40:22.635Z,10.2
2024-04-19T08:41:31.810Z,10.2
2024-04-19T08:42:41.063Z,10.2
2024-04-19T08:43:50.318Z,10.4
2024-04-19T08:44:59.439Z,10.4
2024-04-19T08:46:08.538Z,10.4
2024-04-19T08:47:17.673Z,10.4
2024-04-19T08:48:25.904Z,10.3
2024-04-19T08:49:34.073Z,10.1
2024-04-19T08:50:43.275Z,10.4
2024-04-19T08:51:52.443Z,10.3
2024-04-19T08:53:01.586Z,10.3
2024-04-19T08:54:10.781Z,10.4
2024-04-19T08:55:19.942Z,10.5
2024-04-19T08:56:29.113Z,10.4
2024-04-19T08:57:38.298Z,10.4
2024-04-19T08:58:47.539Z,10.4
2024-04-19T08:59:56.722Z,10.3
2024-04-19T09:01:05.947Z,10.2
2024-04-19T09:02:15.108Z,10.2
2024-04-19T09:03:24.131Z,10.1
2024-04-19T09:04:32.325Z,10.1
2024-04-19T09:05:41.522Z,10.2
2024-04-19T09:06:50.687Z,10.2
2024-04-19T09:07:59.867Z,10.2
2024-04-19T09:09:09.023Z,10
2024-04-19T09:10:18.217Z,10
2024-04-19T09:11:26.422Z,10.1
2024-04-19T09:12:34.575Z,10.4
2024-04-19T09:13:42.808Z,10.8
2024-04-19T09:14:51.926Z,11.2
2024-04-19T09:16:01.150Z,11.5
2024-04-19T09:17:10.413Z,11.4
2024-04-19T09:18:19.777Z,11.8
2024-04-19T09:19:28.845Z,12
2024-04-19T09:20:37.823Z,12.2
2024-04-19T09:21:47.056Z,12.2
2024-04-19T09:22:56.279Z,11.9
2024-04-19T09:24:05.388Z,11.8
2024-04-19T09:25:14.849Z,11.8
2024-04-19T09:26:22.867Z,11.7
2024-04-19T09:27:32.026Z,11.9
2024-04-19T09:28:41.035Z,12
2024-04-19T09:29:50.229Z,12.2
2024-04-19T09:30:59.486Z,12.5
2024-04-19T09:32:08.664Z,12.7
2024-04-19T09:33:17.742Z,12.7
2024-04-19T09:34:27.015Z,12.3
2024-04-19T09:35:35.140Z,12.3
2024-04-19T09:36:44.308Z,12.3
2024-04-19T09:37:52.538Z,11.8
2024-04-19T09:39:01.671Z,11.6
2024-04-19T09:40:10.916Z,11.7
2024-04-19T09:41:19.977Z,11.9
2024-04-19T09:42:29.237Z,11.9
2024-04-19T09:43:38.513Z,11.7
2024-04-19T09:44:47.647Z,11.5
2024-04-19T09:45:56.953Z,11.6
2024-04-19T09:47:05.830Z,11.5
2024-04-19T09:48:15.018Z,11.5
2024-04-19T09:49:24.163Z,11.5
2024-04-19T09:51:42.527Z,11.6
2024-04-19T09:52:51.688Z,11.4
2024-04-19T09:54:00.878Z,11.4
2024-04-19T09:55:09.039Z,11.3
2024-04-19T09:56:18.372Z,11.4
2024-04-19T09:57:27.628Z,11.5
2024-04-19T09:58:36.558Z,11.5
2024-04-19T09:59:45.800Z,11.5
2024-04-19T10:00:55.101Z,11.6
2024-04-19T10:02:04.113Z,11.8
2024-04-19T10:03:13.344Z,11.8
2024-04-19T10:04:22.435Z,11.5
2024-04-19T10:05:31.603Z,11.4
2024-04-19T10:06:41.065Z,11.3
2024-04-19T10:07:49.990Z,11.2
2024-04-19T10:08:59.381Z,11.2
2024-04-19T10:10:07.413Z,11.2
2024-04-19T10:11:16.507Z,11.2
2024-04-19T10:12:25.702Z,11.3
2024-04-19T10:13:35.031Z,11.4
2024-04-19T10:14:43.045Z,11.2
2024-04-19T10:15:51.214Z,11.1
2024-04-19T10:16:59.387Z,11.2
2024-04-19T10:18:08.728Z,11.4
2024-04-19T10:19:17.813Z,11.1
2024-04-19T10:20:27.075Z,11.1
2024-04-19T10:21:36.112Z,11.3
2024-04-19T10:22:45.359Z,11.1
2024-04-19T10:25:03.642Z,11.6
2024-04-19T10:26:12.779Z,11.5
2024-04-19T10:27:22.197Z,11.6
2024-04-19T10:28:31.526Z,11.8
2024-04-19T10:29:40.360Z,11.8
2024-04-19T10:30:49.596Z,11.6
2024-04-19T10:31:57.656Z,11.7
2024-04-19T10:34:16.016Z,12.2
2024-04-19T10:35:24.171Z,12.3
2024-04-19T10:36:32.745Z,12.4
2024-04-19T10:37:41.831Z,12.1
2024-04-19T10:38:50.791Z,12.3
2024-04-19T10:40:00.137Z,12.2
2024-04-19T10:41:09.056Z,12.5
2024-04-19T10:42:18.248Z,12.5
2024-04-19T10:43:27.440Z,12.4
2024-04-19T10:44:36.582Z,12.4
2024-04-19T10:45:45.746Z,12.6
2024-04-19T10:46:54.006Z,12.8
2024-04-19T10:48:02.408Z,12.6
2024-04-19T10:49:11.501Z,12.7
2024-04-19T10:51:29.644Z,12.1
2024-04-19T10:52:39.034Z,11.8
2024-04-19T10:54:57.305Z,11.7
2024-04-19T10:56:06.579Z,11.5
2024-04-19T10:57:15.575Z,11.7
2024-04-19T10:58:24.903Z,11.5
2024-04-19T10:59:34.104Z,11.4
2024-04-19T11:01:51.441Z,11.5
2024-04-19T11:02:59.421Z,11.6
2024-04-19T11:04:08.594Z,11.3
2024-04-19T11:05:16.875Z,11.3
2024-04-19T11:06:25.965Z,11.2
2024-04-19T11:07:35.159Z,11.4
2024-04-19T11:08:44.421Z,11.7
2024-04-19T11:09:53.487Z,12.1
2024-04-19T11:12:11.836Z,12.3
2024-04-19T11:13:21.003Z,12.3
2024-04-19T11:14:30.142Z,12.4
2024-04-19T11:15:39.327Z,12.6
2024-04-19T11:16:48.653Z,12.6
2024-04-19T11:17:57.778Z,12.2
2024-04-19T11:19:06.853Z,12.4
2024-04-19T11:20:16.014Z,12.3
2024-04-19T11:21:24.198Z,12.2
2024-04-19T11:22:33.450Z,12
2024-04-19T11:23:42.559Z,11.8
2024-04-19T11:24:52.011Z,12.1
2024-04-19T11:26:00.896Z,12.2
2024-04-19T11:27:10.162Z,12.6
2024-04-19T11:28:18.261Z,12.6
2024-04-19T11:29:26.474Z,12.6
2024-04-19T11:30:35.666Z,12.6
2024-04-19T11:31:44.923Z,12.5
2024-04-19T11:32:54.090Z,12.8
2024-04-19T11:34:03.359Z,13.1
2024-04-19T11:35:12.407Z,12.6
2024-04-19T11:36:21.480Z,12.5
2024-04-19T11:37:30.677Z,12.8
2024-04-19T11:39:49.064Z,12.5
2024-04-19T11:40:58.204Z,12
2024-04-19T11:42:07.579Z,11.7
2024-04-19T11:43:16.566Z,11.6
2024-04-19T11:44:24.838Z,11.5
2024-04-19T11:45:34.035Z,11.2
2024-04-19T11:46:43.103Z,11.1
2024-04-19T11:47:52.285Z,10.9
2024-04-19T11:49:01.528Z,10.8
2024-04-19T11:50:10.579Z,10.6
2024-04-19T11:51:19.795Z,10.4
2024-04-19T11:52:28.908Z,10.2
2024-04-19T11:53:38.104Z,9.9
2024-04-19T11:54:47.261Z,9.7
2024-04-19T11:55:56.439Z,9.5
2024-04-19T11:57:05.634Z,9.3
2024-04-19T11:58:14.799Z,9.3
2024-04-19T11:59:23.054Z,9.3
2024-04-19T12:00:32.185Z,9.3
2024-04-19T12:01:41.326Z,9.2
2024-04-19T12:02:50.483Z,9.1
2024-04-19T12:03:59.662Z,9
2024-04-19T12:05:08.826Z,8.8
2024-04-19T12:06:18.004Z,8.9
2024-04-19T12:07:27.158Z,9
2024-04-19T12:08:36.343Z,8.9
2024-04-19T12:09:45.545Z,8.9
2024-04-19T12:10:54.764Z,8.8
2024-04-19T12:12:03.863Z,8.7
2024-04-19T12:14:22.200Z,9.1
2024-04-19T12:15:30.451Z,9.1
2024-04-19T12:16:39.600Z,9.3
2024-04-19T12:17:48.800Z,9.5
2024-04-19T12:18:58.233Z,10.1
2024-04-19T12:20:07.364Z,10.6
2024-04-19T12:21:16.636Z,10.8
2024-04-19T12:22:25.852Z,11.3
2024-04-19T12:23:34.624Z,11.3
2024-04-19T12:24:43.813Z,11.2
2024-04-19T12:25:52.941Z,11.6
2024-04-19T12:27:02.131Z,12.6
2024-04-19T12:28:11.313Z,12.7
2024-04-19T12:29:19.499Z,12.4
2024-04-19T12:30:27.690Z,12.8
2024-04-19T12:31:36.879Z,13.2
2024-04-19T12:32:45.068Z,13.5
2024-04-19T12:33:54.228Z,13.3
2024-04-19T12:35:03.383Z,13.6
2024-04-19T12:36:12.564Z,13.7
2024-04-19T12:38:30.921Z,13.1
2024-04-19T12:39:40.070Z,12.6
2024-04-19T12:40:49.261Z,12.8
2024-04-19T12:41:58.438Z,12.7
2024-04-19T12:43:07.613Z,12.1
2024-04-19T12:44:16.785Z,11.9
2024-04-19T12:45:25.931Z,11.7
2024-04-19T12:46:35.089Z,11.6
2024-04-19T12:47:43.317Z,11.1
2024-04-19T12:48:52.456Z,10.8
2024-04-19T12:50:01.644Z,10.7
2024-04-19T12:51:10.832Z,10.5
2024-04-19T12:52:19.987Z,10.3
2024-04-19T12:53:29.174Z,10.1
2024-04-19T12:54:38.353Z,10.1
2024-04-19T12:55:47.528Z,10
2024-04-19T12:56:56.704Z,9.9
2024-04-19T12:58:04.903Z,9.9
2024-04-19T12:59:13.095Z,9.8
2024-04-19T13:00:22.294Z,9.8
2024-04-19T13:01:31.404Z,9.8
2024-04-19T13:02:40.559Z,9.6
2024-04-19T13:03:49.770Z,9.6
2024-04-19T13:04:58.929Z,9.5
2024-04-19T13:06:08.105Z,9.4
2024-04-19T13:07:17.284Z,9.5
2024-04-19T13:08:26.447Z,9.6
2024-04-19T13:09:35.607Z,10
2024-04-19T13:10:44.822Z,10
2024-04-19T13:11:53.956Z,10.9
2024-04-19T13:13:03.122Z,11.5
2024-04-19T13:14:12.313Z,11.8
2024-04-19T13:15:20.511Z,12
2024-04-19T13:16:29.652Z,12.2
2024-04-19T13:17:37.841Z,12
2024-04-19T13:18:47.043Z,12
2024-04-19T13:19:56.201Z,12.5
2024-04-19T13:21:04.404Z,12.4
2024-04-19T13:22:12.576Z,12.5
2024-04-19T13:23:20.759Z,12.7
2024-04-19T13:24:29.946Z,12.3
2024-04-19T13:25:39.109Z,12.9
2024-04-19T13:26:48.275Z,12.7
2024-04-19T13:27:57.476Z,12.3
2024-04-19T13:29:06.656Z,12.2
2024-04-19T13:30:15.803Z,11.9
2024-04-19T13:31:24.974Z,11.5
2024-04-19T13:32:34.147Z,11.3
2024-04-19T13:33:43.335Z,11.1
2024-04-19T13:34:52.492Z,10.8
2024-04-19T13:36:01.680Z,10.6
2024-04-19T13:37:10.823Z,10.6
2024-04-19T13:38:19.075Z,10.6
2024-04-19T13:39:28.179Z,10.5
2024-04-19T13:40:37.356Z,10.3
2024-04-19T13:41:46.541Z,10.2
2024-04-19T13:42:55.708Z,10.4
2024-04-19T13:44:04.875Z,10.4
2024-04-19T13:45:13.121Z,10.2
2024-04-19T13:46:21.274Z,10.2
2024-04-19T13:48:39.599Z,10
2024-04-19T13:49:48.816Z,9.9
2024-04-19T13:50:57.948Z,9.5
2024-04-19T13:52:07.164Z,9.5
2024-04-19T13:53:16.331Z,9.3
2024-04-19T13:54:25.493Z,9.5
2024-04-19T13:55:34.664Z,9.6
2024-04-19T13:56:43.844Z,10
2024-04-19T13:57:52.998Z,10.2
2024-04-19T13:59:02.200Z,10.2
2024-04-19T14:00:11.352Z,10.2
2024-04-19T14:01:19.512Z,10.4
2024-04-19T14:02:28.707Z,11
2024-04-19T14:03:37.854Z,11.5
2024-04-19T14:05:56.209Z,11.3
2024-04-19T14:07:04.453Z,11.4
2024-04-19T14:08:12.598Z,11.7
2024-04-19T14:09:21.769Z,11.9
2024-04-19T14:10:30.973Z,11.9
2024-04-19T14:11:40.129Z,11.9
2024-04-19T14:12:49.326Z,11.9
2024-04-19T14:13:58.484Z,11.6
2024-04-19T14:15:07.723Z,11.3
2024-04-19T14:16:16.818Z,11
2024-04-19T14:17:26.006Z,10.6
2024-04-19T14:18:34.173Z,10.4
2024-04-19T14:19:42.380Z,10.3
2024-04-19T14:20:51.567Z,10.1
2024-04-19T14:22:00.726Z,10
2024-04-19T14:23:09.903Z,9.8
2024-04-19T14:24:19.073Z,9.4
2024-04-19T14:25:28.216Z,9.1
2024-04-19T14:26:37.405Z,8.8
2024-04-19T14:27:46.570Z,8.7
2024-04-19T14:28:55.822Z,8.5
2024-04-19T14:30:04.926Z,8.6
2024-04-19T14:31:14.068Z,8.9
2024-04-19T14:32:23.237Z,9
2024-04-19T14:33:32.428Z,9.1
2024-04-19T14:34:40.617Z,9.1
2024-04-19T14:35:49.774Z,9.7
2024-04-19T14:36:58.980Z,10.2
2024-04-19T14:38:08.160Z,10.6
2024-04-19T14:39:17.292Z,11.2
2024-04-19T14:40:26.462Z,11
2024-04-19T14:41:34.662Z,11
2024-04-19T14:42:42.851Z,10.4
2024-04-19T14:43:51.070Z,10.1
2024-04-19T14:45:00.396Z,10
2024-04-19T14:46:09.434Z,10.2
2024-04-19T14:47:18.577Z,10.7
2024-04-19T14:48:27.729Z,11.2
2024-04-19T14:49:36.900Z,11.4
2024-04-19T14:50:46.069Z,11.9
2024-04-19T14:51:55.247Z,11.7
2024-04-19T14:53:04.419Z,12
2024-04-19T14:54:13.600Z,12.6
2024-04-19T14:55:22.772Z,12
2024-04-19T14:56:31.951Z,12.3
2024-04-19T14:57:41.137Z,12
2024-04-19T14:58:50.289Z,12.4
2024-04-19T14:59:58.481Z,12.4
2024-04-19T15:01:07.682Z,12.7
2024-04-19T15:02:16.823Z,13.1
2024-04-19T15:04:35.171Z,13.1
2024-04-19T15:05:44.357Z,12.6
2024-04-19T15:06:53.498Z,12.7
2024-04-19T15:08:01.712Z,13
2024-04-19T15:09:09.896Z,13.2
2024-04-19T15:10:19.110Z,13.2
2024-04-19T15:11:28.228Z,13.2
2024-04-19T15:12:37.424Z,13.1
2024-04-19T15:13:46.572Z,12.9
2024-04-19T15:14:55.774Z,13.4
2024-04-19T15:16:04.918Z,13.6
2024-04-19T15:18:23.281Z,13
2024-04-19T15:19:32.466Z,12.8
2024-04-19T15:20:41.626Z,12.8
2024-04-19T15:21:50.769Z,13.1
2024-04-19T15:22:59.973Z,12.9
2024-04-19T15:24:09.117Z,13.2
2024-04-19T15:25:17.300Z,13.1
2024-04-19T15:27:35.678Z,13.3
2024-04-19T15:28:44.867Z,12.8
2024-04-19T15:29:53.036Z,12.7
2024-04-19T15:31:01.210Z,12
2024-04-19T15:32:10.378Z,11.9
2024-04-19T15:33:19.611Z,11.8
2024-04-19T15:34:28.723Z,12
2024-04-19T15:35:37.887Z,12.6
2024-04-19T15:36:47.070Z,13.3
2024-04-19T15:37:56.236Z,13.6
2024-04-19T15:39:05.421Z,13.8
2024-04-19T15:40:14.587Z,13.7
2024-04-19T15:41:22.774Z,13.6
2024-04-19T15:42:31.071Z,14
2024-04-19T15:43:40.252Z,14.3
2024-04-19T15:44:49.318Z,14.2
2024-04-19T15:47:07.696Z,14.4
2024-04-19T15:48:16.824Z,14.2
2024-04-19T15:49:26.005Z,14
2024-04-19T15:50:35.189Z,13.8
2024-04-19T15:51:44.330Z,14
2024-04-19T15:52:53.516Z,13
2024-04-19T15:54:02.701Z,12.6
2024-04-19T15:55:11.869Z,12.6
2024-04-19T15:56:21.031Z,12.5
2024-04-19T15:57:29.234Z,12.2
2024-04-19T15:58:38.400Z,11.7
2024-04-19T15:59:47.585Z,11.5
2024-04-19T16:00:56.739Z,11.4
2024-04-19T16:02:05.988Z,11.4
2024-04-19T16:03:15.098Z,11.2
2024-04-19T16:04:24.257Z,11
2024-04-19T16:05:32.582Z,10.9
2024-04-19T16:07:50.807Z,10.6
2024-04-19T16:08:59.007Z,10.6
2024-04-19T16:10:08.147Z,10.6
2024-04-19T16:11:17.314Z,10.6
2024-04-19T16:12:26.481Z,10.6
2024-04-19T16:13:35.691Z,10.5
2024-04-19T16:14:44.929Z,10.6
2024-04-19T16:15:54.033Z,10.6
2024-04-19T16:17:03.179Z,10.5
2024-04-19T16:18:12.349Z,10.5
2024-04-19T16:19:21.520Z,10.5